Time;durP1;ratioP1;P1;durP2;ratioP2;P2;SDS_P1;SDS_P2;PMS_P1;PMS_P2;Temp;Humidity;BMP_temperature;BMP_pressure;BME280_temperature;BME280_humidity;BME280_pressure;Samples;Min_cycle;Max_cycle;Signal;HPM_P1;HPM_P2
2022/02/26 00:02:11;;;;;;;22.80;15.80;;;;;;;0.84;63.55;97642.98;109570;1251;69448;-65
2022/02/26 00:04:40;;;;;;;21.60;14.40;;;;;;;0.83;63.46;97639.91;109729;1250;59741;-63
2022/02/26 00:07:10;;;;;;;24.40;16.90;;;;;;;0.81;63.82;97641.55;109640;1250;60135;-64
2022/02/26 00:09:40;;;;;;;37.40;25.40;;;;;;;0.76;66.55;97647.86;109686;1250;71593;-61
2022/02/26 00:12:10;;;;;;;28.60;19.30;;;;;;;0.69;67.96;97650.80;109654;1250;67282;-61
2022/02/26 00:14:39;;;;;;;32.20;19.70;;;;;;;0.72;64.88;97655.17;109658;1250;68633;-64
2022/02/26 00:17:09;;;;;;;34.10;20.00;;;;;;;0.73;64.97;97653.09;109696;1250;59740;-65
2022/02/26 00:19:40;;;;;;;32.30;21.90;;;;;;;0.71;67.04;97654.70;109767;1250;59674;-63
2022/02/26 00:22:11;;;;;;;41.90;27.00;;;;;;;0.69;66.64;97653.89;109641;1251;71553;-62
2022/02/26 00:24:42;;;;;;;29.70;20.30;;;;;;;0.67;66.95;97656.88;109736;1251;68642;-63
2022/02/26 00:27:12;;;;;;;27.50;18.70;;;;;;;0.68;65.74;97656.52;109772;1250;68591;-63
2022/02/26 00:29:43;;;;;;;25.60;18.10;;;;;;;0.68;64.93;97658.38;109828;1250;59688;-65
2022/02/26 00:32:13;;;;;;;25.90;19.30;;;;;;;0.69;64.52;97656.98;109791;1250;59675;-62
2022/02/26 00:34:44;;;;;;;21.80;13.60;;;;;;;0.70;64.14;97660.22;109701;1250;70688;-64
2022/02/26 00:37:14;;;;;;;24.80;15.40;;;;;;;0.72;64.11;97663.25;109648;1252;67921;-61
2022/02/26 00:39:45;;;;;;;27.60;18.30;;;;;;;0.74;63.41;97666.13;109765;1250;68619;-62
2022/02/26 00:42:15;;;;;;;26.80;17.90;;;;;;;0.75;63.51;97662.81;109707;1250;59792;-62
2022/02/26 00:44:47;;;;;;;27.00;17.30;;;;;;;0.77;64.31;97664.65;109757;1250;59731;-61
2022/02/26 00:47:17;;;;;;;29.60;19.50;;;;;;;0.78;64.62;97666.49;109749;1250;70765;-61
2022/02/26 00:49:50;;;;;;;31.10;18.70;;;;;;;0.78;65.73;97665.81;109796;1250;68576;-63
2022/02/26 00:52:32;;;;;;;31.00;19.60;;;;;;;0.73;66.09;97664.59;109795;1250;69388;-62
2022/02/26 00:55:04;;;;;;;29.00;19.00;;;;;;;0.63;67.16;97669.35;109756;1250;59633;-64
2022/02/26 00:57:34;;;;;;;24.30;16.90;;;;;;;0.57;66.19;97669.70;109776;1250;59674;-63
2022/02/26 01:00:08;;;;;;;;;;;;;;;0.52;66.19;97670.69;109698;1251;70611;-62
2022/02/26 01:02:37;;;;;;;28.20;19.20;;;;;;;0.46;66.41;97669.81;109661;1249;68608;-62
2022/02/26 01:05:07;;;;;;;25.00;18.60;;;;;;;0.43;65.53;97670.93;109817;1250;69454;-62
2022/02/26 01:07:38;;;;;;;27.70;18.10;;;;;;;0.42;65.02;97670.30;109648;1250;59737;-63
2022/02/26 01:10:09;;;;;;;28.60;18.70;;;;;;;0.42;64.73;97668.40;109726;1250;59691;-62
2022/02/26 01:12:38;;;;;;;31.80;20.80;;;;;;;0.46;65.90;97670.86;109766;1250;71551;-62
2022/02/26 01:15:09;;;;;;;34.10;23.20;;;;;;;0.43;67.21;97674.55;109676;1251;68536;-62
2022/02/26 01:17:38;;;;;;;25.70;15.70;;;;;;;0.40;66.91;97673.06;109778;1250;68832;-61
2022/02/26 01:20:09;;;;;;;28.60;19.40;;;;;;;0.40;66.19;97672.40;109784;1250;59757;-62
2022/02/26 01:22:38;;;;;;;33.50;19.60;;;;;;;0.34;68.56;97673.77;109648;1251;59685;-62
2022/02/26 01:25:08;;;;;;;33.80;22.30;;;;;;;0.31;67.53;97674.55;109730;1250;71607;-62
2022/02/26 01:27:39;;;;;;;38.00;23.80;;;;;;;0.25;67.69;97669.22;109630;1253;67311;-63
2022/02/26 01:30:09;;;;;;;34.00;22.70;;;;;;;0.18;68.88;97671.30;109629;1251;69420;-62
2022/02/26 01:32:42;;;;;;;21.60;14.70;;;;;;;0.13;67.47;97671.10;109663;1250;59760;-62
2022/02/26 01:35:13;;;;;;;26.80;20.00;;;;;;;0.08;66.22;97670.02;109733;1250;59671;-64
2022/02/26 01:37:43;;;;;;;43.20;29.50;;;;;;;0.01;67.30;97669.34;109574;1250;71350;-64
2022/02/26 01:40:12;;;;;;;;;;;;;;;-0.14;72.09;97663.92;109732;1250;67617;-65
2022/02/26 01:42:42;;;;;;;39.80;22.90;;;;;;;-0.25;72.28;97667.30;109790;1249;69444;-62
2022/02/26 01:45:16;;;;;;;26.90;20.00;;;;;;;-0.32;70.21;97664.20;109660;1250;59716;-62
2022/02/26 01:47:46;;;;;;;41.80;26.00;;;;;;;-0.37;71.35;97664.52;109739;1250;59643;-63
2022/02/26 01:50:16;;;;;;;50.50;30.70;;;;;;;-0.48;73.20;97661.86;109785;1250;71518;-61
2022/02/26 01:52:47;;;;;;;43.60;29.80;;;;;;;-0.58;73.61;97663.30;109838;1250;67832;-64
2022/02/26 01:55:17;;;;;;;39.30;26.60;;;;;;;-0.61;73.41;97659.29;109781;1250;68540;-63
2022/02/26 01:57:47;;;;;;;48.10;31.30;;;;;;;-0.65;72.45;97661.77;109871;1250;59676;-62
2022/02/26 02:00:17;;;;;;;50.90;32.20;;;;;;;-0.71;73.81;97663.29;109618;1250;59693;-64
2022/02/26 02:02:48;;;;;;;52.10;30.90;;;;;;;-0.76;74.08;97666.84;109700;1250;71577;-63
2022/02/26 02:05:18;;;;;;;45.90;30.30;;;;;;;-0.79;73.63;97664.15;109837;1250;67892;-64
2022/02/26 02:07:47;;;;;;;52.20;31.50;;;;;;;-0.80;72.97;97668.95;109729;1250;68474;-61
2022/02/26 02:10:18;;;;;;;48.50;32.40;;;;;;;-0.81;73.12;97672.58;109695;1251;59744;-62
2022/02/26 02:12:48;;;;;;;50.10;32.00;;;;;;;-0.85;75.12;97671.84;109845;1250;59641;-62
2022/02/26 02:15:36;;;;;;;46.80;31.10;;;;;;;-0.92;75.99;97678.48;109704;1252;71430;-63
2022/02/26 02:18:11;;;;;;;47.70;29.90;;;;;;;-0.98;75.31;97677.42;109617;1252;68564;-62
2022/02/26 02:20:42;;;;;;;49.00;31.90;;;;;;;-1.01;75.18;97679.20;109671;1252;68915;-61
2022/02/26 02:23:15;;;;;;;53.40;34.20;;;;;;;-1.05;75.91;97683.92;109781;1250;59763;-63
2022/02/26 02:25:45;;;;;;;51.30;33.00;;;;;;;-1.14;76.58;97683.44;109684;1250;59759;-63
2022/02/26 02:28:17;;;;;;;39.70;25.70;;;;;;;-1.14;75.60;97687.87;109695;1250;71398;-62
2022/02/26 02:30:50;;;;;;;34.00;20.70;;;;;;;-1.12;73.98;97685.60;109845;1250;67771;-62
2022/02/26 02:33:21;;;;;;;36.10;22.60;;;;;;;-1.09;72.81;97686.91;109661;1251;69279;-61
2022/02/26 02:35:50;;;;;;;33.10;22.30;;;;;;;-1.06;72.16;97687.36;109641;1253;59776;-62
2022/02/26 02:38:20;;;;;;;28.30;21.70;;;;;;;-1.02;71.38;97689.50;109889;1250;59736;-63
2022/02/26 02:40:50;;;;;;;37.10;23.50;;;;;;;-0.95;71.05;97692.61;109743;1250;72278;-63
2022/02/26 02:43:23;;;;;;;28.80;20.20;;;;;;;-0.90;71.17;97696.60;109549;1250;381052;-62
2022/02/26 02:45:54;;;;;;;31.60;23.00;;;;;;;-0.86;70.99;97697.36;109913;1250;69386;-63
2022/02/26 02:48:24;;;;;;;27.70;20.30;;;;;;;-0.81;70.95;97698.10;109916;1250;59754;-62
2022/02/26 02:50:54;;;;;;;48.30;32.00;;;;;;;-0.77;70.72;97695.09;109712;1250;59658;-61
2022/02/26 02:53:25;;;;;;;48.50;32.30;;;;;;;-0.75;73.58;97701.38;109820;1250;71547;-60
2022/02/26 02:55:55;;;;;;;47.80;29.90;;;;;;;-0.75;73.87;97700.36;109792;1250;68414;-62
2022/02/26 02:58:29;;;;;;;48.60;30.70;;;;;;;-0.73;73.24;97704.91;109719;1250;69227;-63
2022/02/26 03:00:59;;;;;;;29.80;19.90;;;;;;;-0.69;73.31;97700.05;109802;1249;59752;-64
2022/02/26 03:03:29;;;;;;;40.50;27.50;;;;;;;-0.64;71.94;97699.40;109762;1250;59743;-64
2022/02/26 03:06:00;;;;;;;37.10;23.30;;;;;;;-0.59;71.40;97709.90;109746;1250;70859;-62
2022/02/26 03:08:30;;;;;;;35.80;21.80;;;;;;;-0.57;70.83;97707.10;109906;1250;68074;-63
2022/02/26 03:11:00;;;;;;;34.20;21.90;;;;;;;-0.56;70.48;97708.44;109709;1250;69488;-62
2022/02/26 03:13:32;;;;;;;32.30;21.90;;;;;;;-0.53;70.30;97714.54;109996;1250;59663;-62
2022/02/26 03:16:02;;;;;;;31.10;20.40;;;;;;;-0.52;70.12;97712.62;109839;1250;59757;-62
2022/02/26 03:18:33;;;;;;;36.40;22.90;;;;;;;-0.50;69.78;97716.38;109795;1250;71466;-63
2022/02/26 03:21:05;;;;;;;42.20;27.80;;;;;;;-0.49;70.10;97717.20;109746;1250;67689;-62
2022/02/26 03:23:35;;;;;;;31.70;20.90;;;;;;;-0.50;70.58;97722.55;109755;1250;69396;-61
2022/02/26 03:26:04;;;;;;;;;;;;;;;-0.49;70.36;97726.79;109863;1250;59772;-62
2022/02/26 03:28:37;;;;;;;26.50;16.90;;;;;;;-0.48;70.47;97730.20;109870;1250;59676;-62
2022/02/26 03:31:07;;;;;;;31.30;19.20;;;;;;;-0.47;69.88;97733.24;109754;1250;71669;-61
2022/02/26 03:33:36;;;;;;;31.40;21.00;;;;;;;-0.44;69.76;97738.00;109873;1251;67076;-62
2022/02/26 03:36:06;;;;;;;30.30;19.70;;;;;;;-0.45;71.25;97744.34;109822;1250;68632;-63
2022/02/26 03:38:38;;;;;;;31.40;19.30;;;;;;;-0.44;70.27;97747.39;109687;1251;60128;-62
2022/02/26 03:41:13;;;;;;;26.30;17.80;;;;;;;-0.43;70.52;97749.25;109799;1250;59634;-62
2022/02/26 03:43:45;;;;;;;36.40;23.40;;;;;;;-0.44;70.80;97749.45;109819;1250;70743;-62
2022/02/26 03:46:15;;;;;;;34.70;23.50;;;;;;;-0.48;71.69;97753.48;109703;1252;68571;-62
2022/02/26 03:48:46;;;;;;;29.50;18.60;;;;;;;-0.49;72.29;97753.35;109686;1250;67818;-63
2022/02/26 03:51:16;;;;;;;24.70;16.10;;;;;;;-0.49;71.22;97759.15;109781;1250;59760;-63
2022/02/26 03:53:46;;;;;;;20.20;14.30;;;;;;;-0.47;70.46;97760.99;109902;1250;59692;-62
2022/02/26 03:56:16;;;;;;;38.20;26.10;;;;;;;-0.46;70.55;97762.68;109812;1250;70592;-62
2022/02/26 03:58:45;;;;;;;29.70;20.90;;;;;;;-0.45;72.40;97764.03;109842;1250;68397;-62
2022/02/26 04:01:15;;;;;;;38.90;22.80;;;;;;;-0.48;73.40;97769.40;109874;1251;69092;-63
2022/02/26 04:03:45;;;;;;;27.00;19.40;;;;;;;-0.48;72.53;97769.41;109812;1250;59741;-66
2022/02/26 04:06:15;;;;;;;20.40;14.70;;;;;;;-0.46;72.20;97771.75;109882;1249;59689;-64
2022/02/26 04:08:45;;;;;;;24.90;17.00;;;;;;;-0.43;71.42;97772.20;109880;1250;71014;-62
2022/02/26 04:11:15;;;;;;;24.20;15.50;;;;;;;-0.40;70.90;97779.66;110005;1250;67922;-63
2022/02/26 04:13:47;;;;;;;33.80;24.50;;;;;;;-0.37;70.97;97779.94;109714;1250;69320;-61
2022/02/26 04:16:16;;;;;;;36.60;25.50;;;;;;;-0.34;73.03;97783.48;109668;1252;59819;-62
2022/02/26 04:18:48;;;;;;;39.50;26.00;;;;;;;-0.39;75.33;97787.51;109692;1250;59778;-62
2022/02/26 04:21:17;;;;;;;29.70;19.90;;;;;;;-0.41;74.75;97787.73;109644;1252;70817;-63
2022/02/26 04:23:52;;;;;;;23.60;16.40;;;;;;;-0.40;72.70;97789.77;109971;1249;67845;-62
2022/02/26 04:26:22;;;;;;;24.40;17.00;;;;;;;-0.38;72.09;97793.14;109576;1251;69249;-62
2022/02/26 04:28:53;;;;;;;25.30;17.90;;;;;;;-0.35;72.34;97793.59;109731;1250;59691;-63
2022/02/26 04:31:24;;;;;;;25.20;17.80;;;;;;;-0.33;71.81;97793.36;110054;1250;59747;-62
2022/02/26 04:33:53;;;;;;;25.20;17.10;;;;;;;-0.30;71.50;97792.94;109947;1250;71618;-65
2022/02/26 04:36:23;;;;;;;31.40;23.10;;;;;;;-0.26;71.23;97795.44;109804;1250;67938;-63
2022/02/26 04:38:54;;;;;;;29.70;18.70;;;;;;;-0.23;72.65;97801.20;109782;1250;68411;-62
2022/02/26 04:41:24;;;;;;;35.50;23.50;;;;;;;-0.19;70.92;97804.17;109857;1250;59726;-61
2022/02/26 04:43:55;;;;;;;38.10;24.00;;;;;;;-0.14;71.19;97804.23;109854;1250;59669;-63
2022/02/26 04:46:25;;;;;;;33.20;22.20;;;;;;;-0.14;71.61;97805.77;109804;1250;71395;-63
2022/02/26 04:48:57;;;;;;;33.20;22.90;;;;;;;-0.14;71.44;97806.46;109873;1250;68644;-63
2022/02/26 04:51:27;;;;;;;31.50;21.00;;;;;;;-0.17;72.09;97808.59;110010;1250;69077;-63
2022/02/26 04:53:58;;;;;;;30.30;19.70;;;;;;;-0.25;73.44;97814.59;110080;1250;59751;-62
2022/02/26 04:56:27;;;;;;;41.00;28.80;;;;;;;-0.28;73.34;97816.38;109845;1250;59763;-61
2022/02/26 04:58:59;;;;;;;49.60;33.00;;;;;;;-0.32;74.60;97820.75;109784;1251;70723;-62
2022/02/26 05:01:30;;;;;;;46.20;30.10;;;;;;;-0.34;74.39;97825.58;109872;1251;68505;-64
2022/02/26 05:04:00;;;;;;;50.40;31.80;;;;;;;-0.36;74.90;97826.84;109946;1250;68762;-63
2022/02/26 05:06:30;;;;;;;34.70;24.20;;;;;;;-0.36;74.85;97830.10;109664;1251;59747;-61
2022/02/26 05:09:02;;;;;;;31.50;21.80;;;;;;;-0.34;73.41;97833.13;109785;1250;59660;-62
2022/02/26 05:11:31;;;;;;;40.70;26.30;;;;;;;-0.32;73.78;97835.14;109647;1251;71508;-62
2022/02/26 05:14:03;;;;;;;33.90;22.80;;;;;;;-0.31;75.48;97839.23;109817;1250;67863;-61
2022/02/26 05:16:33;;;;;;;43.30;24.70;;;;;;;-0.28;74.71;97838.13;109793;1250;68829;-62
2022/02/26 05:19:05;;;;;;;35.30;24.00;;;;;;;-0.25;75.24;97843.89;109760;1251;59733;-62
2022/02/26 05:21:39;;;;;;;31.40;20.90;;;;;;;-0.21;74.83;97843.46;109823;1249;59687;-62
2022/02/26 05:24:08;;;;;;;29.10;16.90;;;;;;;-0.14;73.40;97845.70;109678;1252;70839;-60
2022/02/26 05:26:38;;;;;;;25.50;17.10;;;;;;;-0.08;72.57;97848.81;109781;1251;67431;-62
2022/02/26 05:29:08;;;;;;;27.10;18.80;;;;;;;-0.05;72.37;97855.59;109625;1251;70017;-63
2022/02/26 05:31:38;;;;;;;31.60;20.80;;;;;;;-0.02;72.35;97861.00;109874;1250;59667;-64
2022/02/26 05:34:09;;;;;;;31.30;22.20;;;;;;;-0.01;72.78;97865.58;109829;1250;59814;-62
2022/02/26 05:36:39;;;;;;;38.00;23.20;;;;;;;-0.03;72.96;97867.38;109845;1251;72144;-62
2022/02/26 05:39:10;;;;;;;41.00;26.30;;;;;;;-0.08;73.64;97870.41;109814;1250;68470;-62
2022/02/26 05:41:39;;;;;;;47.00;29.50;;;;;;;-0.12;74.17;97870.84;109825;1250;68427;-63
2022/02/26 05:44:09;;;;;;;42.20;28.10;;;;;;;-0.15;75.68;97874.49;109813;1251;59763;-63
2022/02/26 05:46:38;;;;;;;31.60;22.20;;;;;;;-0.15;75.58;97875.86;109731;1251;59671;-63
2022/02/26 05:49:08;;;;;;;35.40;24.80;;;;;;;-0.11;75.30;97880.91;109730;1251;71520;-64
2022/02/26 05:51:37;;;;;;;36.10;23.90;;;;;;;-0.09;75.10;97879.33;109692;1251;68665;-64
2022/02/26 05:54:06;;;;;;;39.90;23.80;;;;;;;-0.04;74.52;97878.70;109893;1250;68669;-65
2022/02/26 05:56:36;;;;;;;31.50;22.60;;;;;;;0.01;74.86;97880.81;109917;1250;59712;-64
2022/02/26 05:59:06;;;;;;;29.90;20.60;;;;;;;0.07;74.49;97884.77;109849;1250;59999;-62
2022/02/26 06:01:35;;;;;;;29.00;18.80;;;;;;;0.15;73.38;97884.59;109908;1250;72433;-63
2022/02/26 06:04:04;;;;;;;30.30;19.50;;;;;;;0.25;72.57;97883.50;109805;1250;68648;-63
2022/02/26 06:06:33;;;;;;;31.80;21.00;;;;;;;0.32;72.36;97891.75;109915;1250;68710;-62
2022/02/26 06:09:03;;;;;;;29.80;19.20;;;;;;;0.36;72.14;97893.51;109948;1250;59675;-62
2022/02/26 06:11:32;;;;;;;30.10;20.20;;;;;;;0.43;71.85;97900.55;109736;1250;59664;-65
2022/02/26 06:14:01;;;;;;;28.40;18.80;;;;;;;0.49;71.77;97907.61;109911;1251;71598;-63
2022/02/26 06:16:30;;;;;;;33.50;21.50;;;;;;;0.55;71.72;97907.30;109921;1250;67430;-63
2022/02/26 06:19:01;;;;;;;32.80;22.30;;;;;;;0.60;71.91;97910.42;109891;1250;67649;-65
2022/02/26 06:21:30;;;;;;;29.40;20.60;;;;;;;0.67;72.05;97910.77;109775;1252;59679;-63
2022/02/26 06:24:00;;;;;;;34.80;23.20;;;;;;;0.75;71.55;97912.27;109919;1249;59683;-62
2022/02/26 06:26:29;;;;;;;29.80;19.50;;;;;;;0.83;71.51;97911.21;109815;1250;70814;-61
2022/02/26 06:28:59;;;;;;;23.90;16.50;;;;;;;0.91;71.03;97913.23;109997;1250;68610;-61
2022/02/26 06:31:28;;;;;;;25.60;16.30;;;;;;;1.03;70.64;97914.64;109910;1250;69284;-62
2022/02/26 06:33:58;;;;;;;24.00;16.10;;;;;;;1.14;70.39;97922.07;110011;1250;59754;-62
2022/02/26 06:36:28;;;;;;;25.20;16.70;;;;;;;1.24;70.44;97920.77;109742;1250;59721;-62
2022/02/26 06:38:57;;;;;;;19.30;13.40;;;;;;;1.35;70.12;97924.08;109949;1250;71603;-62
2022/02/26 06:41:29;;;;;;;29.30;17.20;;;;;;;1.45;69.69;97925.84;109988;1250;66832;-62
2022/02/26 06:43:58;;;;;;;26.40;18.30;;;;;;;1.55;69.54;97926.61;109916;1249;70296;-64
2022/02/26 06:46:30;;;;;;;27.10;18.40;;;;;;;1.64;69.63;97924.77;109901;1250;59683;-62
2022/02/26 06:48:59;;;;;;;24.90;16.60;;;;;;;1.75;69.44;97925.31;109809;1251;59734;-63
2022/02/26 06:51:30;;;;;;;27.20;19.00;;;;;;;1.87;69.15;97925.34;109971;1250;71504;-62
2022/02/26 06:54:00;;;;;;;23.80;15.80;;;;;;;1.97;69.32;97927.27;109812;1250;69600;-61
2022/02/26 06:56:33;;;;;;;24.40;16.60;;;;;;;2.09;68.69;97929.98;109758;1250;69744;-61
2022/02/26 06:59:02;;;;;;;22.00;14.10;;;;;;;2.21;68.47;97929.98;109803;1251;59759;-62
2022/02/26 07:01:34;;;;;;;18.80;13.70;;;;;;;2.36;68.25;97932.25;109921;1249;59644;-61
2022/02/26 07:04:04;;;;;;;;;;;;;;;2.52;68.13;97937.75;110005;1249;72059;-62
2022/02/26 07:06:35;;;;;;;18.40;13.20;;;;;;;2.70;67.88;97934.77;109823;1251;67810;-62
2022/02/26 07:09:05;;;;;;;31.10;19.80;;;;;;;2.89;67.44;97942.23;109728;1251;69585;-62
2022/02/26 07:11:37;;;;;;;27.30;19.10;;;;;;;3.08;66.38;97941.58;109713;1251;59749;-64
2022/02/26 07:14:06;;;;;;;28.60;18.90;;;;;;;3.28;65.39;97941.06;109713;1251;60193;-62
2022/02/26 07:16:35;;;;;;;23.80;15.60;;;;;;;3.47;64.98;97939.70;109937;1250;71569;-62
2022/02/26 07:19:07;;;;;;;22.70;14.20;;;;;;;3.71;65.06;97938.30;109698;1251;68581;-61
2022/02/26 07:21:39;;;;;;;22.80;17.90;;;;;;;3.94;63.24;97946.42;109856;1250;69545;-62
2022/02/26 07:24:09;;;;;;;25.80;18.90;;;;;;;4.14;63.13;97950.14;109707;1251;59728;-63
2022/02/26 07:26:41;;;;;;;21.50;14.70;;;;;;;4.36;61.95;97954.61;109862;1250;59628;-61
2022/02/26 07:29:10;;;;;;;29.20;17.80;;;;;;;4.56;61.35;97960.58;109886;1250;71024;-62
2022/02/26 07:31:42;;;;;;;18.80;13.60;;;;;;;4.70;61.19;97964.15;109953;1250;68621;-62
2022/02/26 07:34:11;;;;;;;21.60;17.90;;;;;;;4.81;60.82;97967.84;109818;1251;69422;-63
2022/02/26 07:36:40;;;;;;;38.40;22.40;;;;;;;4.85;58.84;97969.05;109922;1250;59744;-63
2022/02/26 07:39:09;;;;;;;26.10;17.80;;;;;;;4.88;58.92;97973.96;109770;1251;59633;-63
2022/02/26 07:41:38;;;;;;;24.00;17.40;;;;;;;4.94;60.32;97975.78;109826;1250;71577;-62
2022/02/26 07:44:08;;;;;;;28.70;18.60;;;;;;;5.00;59.97;97981.06;109932;1250;68577;-64
2022/02/26 07:46:41;;;;;;;25.90;17.50;;;;;;;5.04;59.39;97982.97;109737;1251;70193;-63
2022/02/26 07:49:11;;;;;;;20.10;13.80;;;;;;;5.08;59.74;97985.05;109772;1250;59984;-62
2022/02/26 07:51:40;;;;;;;27.60;18.20;;;;;;;5.10;59.06;97990.48;109931;1250;59673;-63
2022/02/26 07:54:09;;;;;;;19.50;13.50;;;;;;;5.12;58.12;97990.08;109890;1250;69603;-63
2022/02/26 07:56:39;;;;;;;15.70;11.60;;;;;;;5.16;59.14;97994.05;109878;1251;67831;-64
2022/02/26 07:59:09;;;;;;;18.70;12.00;;;;;;;5.19;57.85;97997.20;109667;1252;68497;-64
2022/02/26 08:01:38;;;;;;;21.40;14.70;;;;;;;5.20;57.57;97999.95;109966;1250;59687;-63
2022/02/26 08:04:08;;;;;;;15.10;10.80;;;;;;;5.17;56.38;97997.29;109973;1250;59835;-66
2022/02/26 08:06:37;;;;;;;16.50;10.60;;;;;;;5.22;56.77;97996.21;109729;1251;70806;-63
2022/02/26 08:09:07;;;;;;;22.00;13.70;;;;;;;5.26;54.69;97995.69;109685;1251;68214;-62
2022/02/26 08:11:39;;;;;;;16.40;10.90;;;;;;;5.33;55.65;97998.35;109942;1249;69388;-61
2022/02/26 08:14:08;;;;;;;16.90;10.20;;;;;;;5.45;56.87;98007.50;109903;1250;59775;-62
2022/02/26 08:16:37;;;;;;;15.30;10.70;;;;;;;5.60;57.03;98009.13;109974;1250;59747;-63
2022/02/26 08:19:07;;;;;;;17.10;10.60;;;;;;;5.73;56.83;98007.69;109927;1250;71524;-62
2022/02/26 08:21:36;;;;;;;13.60;8.60;;;;;;;5.85;56.84;98001.63;109873;1250;67794;-65
2022/02/26 08:24:06;;;;;;;12.00;9.30;;;;;;;5.97;56.80;98005.79;109911;1250;70056;-62
2022/02/26 08:26:35;;;;;;;13.60;8.60;;;;;;;6.07;54.51;98008.27;109570;1253;59752;-63
2022/02/26 08:29:04;;;;;;;14.70;10.70;;;;;;;6.18;54.73;98010.88;109696;1251;59717;-63
2022/02/26 08:31:33;;;;;;;15.30;11.10;;;;;;;6.32;54.44;98013.54;109960;1250;70781;-62
2022/02/26 08:34:07;;;;;;;21.60;14.40;;;;;;;6.47;53.86;98011.45;109797;1249;68156;-63
2022/02/26 08:36:37;;;;;;;16.60;12.40;;;;;;;6.57;53.20;98010.80;109892;1250;68665;-63
2022/02/26 08:39:06;;;;;;;17.20;12.50;;;;;;;6.65;52.14;98013.55;109689;1251;59705;-63
2022/02/26 08:41:36;;;;;;;19.00;13.00;;;;;;;6.66;51.15;98018.02;109982;1250;59692;-62
2022/02/26 08:44:05;;;;;;;14.00;10.30;;;;;;;6.70;52.10;98023.88;109941;1250;71717;-63
2022/02/26 08:46:35;;;;;;;14.40;9.40;;;;;;;6.71;52.38;98023.31;110020;1250;67881;-65
2022/02/26 08:49:04;;;;;;;12.70;8.60;;;;;;;6.76;52.67;98024.47;109778;1251;69464;-64
2022/02/26 08:51:35;;;;;;;12.50;9.60;;;;;;;6.85;52.49;98020.40;109980;1250;59739;-63
2022/02/26 08:54:05;;;;;;;14.40;10.40;;;;;;;6.80;53.43;98022.35;109992;1250;59702;-62
2022/02/26 08:56:35;;;;;;;16.50;9.90;;;;;;;6.79;54.03;98023.61;109898;1251;72155;-65
2022/02/26 08:59:07;;;;;;;12.40;10.20;;;;;;;6.94;54.53;98023.59;109882;1249;68942;-63
2022/02/26 09:01:36;;;;;;;14.80;10.90;;;;;;;6.93;54.98;98022.60;109967;1250;69264;-64
2022/02/26 09:04:09;;;;;;;15.70;10.60;;;;;;;6.89;56.85;98026.27;109747;1251;59742;-62
2022/02/26 09:06:38;;;;;;;18.50;11.90;;;;;;;6.94;57.92;98033.64;109987;1250;59637;-61
2022/02/26 09:09:09;;;;;;;12.50;8.30;;;;;;;7.04;57.84;98035.23;109943;1250;70788;-62
2022/02/26 09:11:41;;;;;;;16.70;12.00;;;;;;;7.24;58.41;98036.90;109971;1250;66985;-62
2022/02/26 09:14:11;;;;;;;14.50;11.30;;;;;;;7.26;59.78;98038.86;109913;1250;69494;-62
2022/02/26 09:16:40;;;;;;;15.30;11.00;;;;;;;7.06;59.41;98039.15;109933;1250;59662;-60
2022/02/26 09:19:13;;;;;;;13.70;9.20;;;;;;;7.09;59.00;98043.14;109651;1251;59783;-63
2022/02/26 09:21:42;;;;;;;14.10;9.90;;;;;;;7.22;57.57;98043.91;109855;1249;70800;-65
2022/02/26 09:24:14;;;;;;;15.60;11.30;;;;;;;6.98;59.50;98046.48;109778;1251;68901;-65
2022/02/26 09:26:43;;;;;;;14.10;10.90;;;;;;;6.79;60.11;98047.55;109845;1250;67681;-64
2022/02/26 09:29:15;;;;;;;14.40;10.00;;;;;;;6.76;59.23;98050.63;109931;1249;59766;-62
2022/02/26 09:31:48;;;;;;;14.90;10.60;;;;;;;6.69;59.01;98049.91;109959;1250;59832;-62
2022/02/26 09:34:24;;;;;;;14.30;11.10;;;;;;;6.56;60.20;98052.94;109893;1250;71631;-63
2022/02/26 09:36:53;;;;;;;17.30;11.60;;;;;;;6.48;60.22;98052.81;109882;1250;68744;-62
2022/02/26 09:39:24;;;;;;;16.30;12.50;;;;;;;6.33;61.54;98056.45;109990;1250;68681;-62
2022/02/26 09:41:53;;;;;;;18.60;13.50;;;;;;;6.17;62.83;98065.65;109848;1250;59701;-62
2022/02/26 09:44:22;;;;;;;12.00;10.10;;;;;;;6.11;62.38;98071.41;109820;1251;59660;-62
2022/02/26 09:46:51;;;;;;;13.70;11.10;;;;;;;6.09;61.82;98072.02;109740;1251;70794;-62
2022/02/26 09:49:20;;;;;;;12.00;9.60;;;;;;;5.98;62.52;98073.57;109806;1250;67843;-63
2022/02/26 09:51:50;;;;;;;11.20;8.30;;;;;;;5.97;62.08;98076.89;109940;1250;68869;-63
2022/02/26 09:54:21;;;;;;;13.20;10.20;;;;;;;5.90;62.73;98075.10;109882;1250;59739;-62
2022/02/26 09:56:52;;;;;;;12.60;9.40;;;;;;;5.90;62.66;98075.29;109973;1250;59755;-64
2022/02/26 09:59:25;;;;;;;12.40;9.50;;;;;;;5.89;62.92;98079.65;109818;1251;70886;-64
2022/02/26 10:02:07;;;;;;;12.10;9.00;;;;;;;5.92;63.48;98079.70;109696;1251;68603;-62
2022/02/26 10:04:53;;;;;;;12.70;9.20;;;;;;;5.98;63.08;98077.71;109781;1251;69281;-62
2022/02/26 10:07:26;;;;;;;13.80;10.60;;;;;;;6.00;64.49;98080.23;109803;1251;59749;-63
2022/02/26 10:09:56;;;;;;;16.10;11.60;;;;;;;6.03;63.62;98080.78;109806;1251;59681;-64
2022/02/26 10:12:29;;;;;;;15.20;11.30;;;;;;;5.99;63.77;98083.76;109856;1251;71634;-64
2022/02/26 10:15:01;;;;;;;11.40;8.90;;;;;;;5.97;63.61;98082.77;109875;1250;69224;-65
2022/02/26 10:17:36;;;;;;;12.80;9.80;;;;;;;5.98;62.77;98088.08;109687;1251;68730;-62
2022/02/26 10:20:16;;;;;;;10.90;8.60;;;;;;;5.81;63.92;98090.18;109970;1250;60150;-64
2022/02/26 10:22:55;;;;;;;10.40;7.50;;;;;;;5.90;62.97;98090.16;109861;1250;59663;-61
2022/02/26 10:25:27;;;;;;;9.00;6.30;;;;;;;5.88;62.25;98096.64;109617;1251;71606;-63
2022/02/26 10:28:01;;;;;;;9.10;6.60;;;;;;;5.85;61.68;98096.75;109900;1250;68795;-63
2022/02/26 10:30:35;;;;;;;6.40;5.40;;;;;;;5.72;62.86;98097.30;109907;1250;69241;-64
2022/02/26 10:33:21;;;;;;;9.40;6.00;;;;;;;5.67;62.82;98097.18;109719;1250;59899;-62
2022/02/26 10:35:56;;;;;;;9.00;6.40;;;;;;;5.52;63.53;98097.09;109752;1250;59660;-61
2022/02/26 10:38:28;;;;;;;9.20;6.80;;;;;;;5.54;63.73;98098.40;109893;1250;71529;-62
2022/02/26 10:41:00;;;;;;;9.80;7.20;;;;;;;5.51;65.79;98100.94;109870;1250;67877;-62
2022/02/26 10:43:52;;;;;;;7.90;5.80;;;;;;;5.68;64.63;98101.09;109691;1251;69536;-61
2022/02/26 10:46:32;;;;;;;10.20;7.00;;;;;;;5.91;64.46;98098.95;109856;1250;59747;-63
2022/02/26 10:49:05;;;;;;;10.20;6.90;;;;;;;6.04;63.32;98099.25;109896;1250;59757;-62
2022/02/26 10:51:39;;;;;;;7.80;6.10;;;;;;;6.18;63.07;98098.84;109810;1250;71930;-62
2022/02/26 10:54:11;;;;;;;8.90;6.70;;;;;;;6.35;61.99;98098.73;109890;1249;67866;-63
2022/02/26 10:56:42;;;;;;;8.00;5.70;;;;;;;6.35;61.40;98099.98;109894;1248;69894;-64
2022/02/26 10:59:25;;;;;;;7.40;5.20;;;;;;;6.35;61.20;98098.56;109644;1251;59668;-65
2022/02/26 11:02:07;;;;;;;5.70;4.70;;;;;;;6.29;60.25;98094.70;109822;1250;59748;-63
2022/02/26 11:04:37;;;;;;;7.60;5.60;;;;;;;6.10;61.49;98101.06;109942;1250;71166;-63
2022/02/26 11:07:07;;;;;;;;;;;;;;;6.06;61.62;98097.26;109988;1250;68154;-62
2022/02/26 11:09:40;;;;;;;7.20;5.10;;;;;;;6.05;61.58;98097.45;109670;1251;68667;-64
2022/02/26 11:12:15;;;;;;;7.00;5.10;;;;;;;6.06;61.69;98095.70;109886;1250;59692;-61
2022/02/26 11:14:55;;;;;;;5.90;5.20;;;;;;;6.10;62.33;98095.35;109684;1251;60176;-65
2022/02/26 11:17:28;;;;;;;5.30;4.70;;;;;;;6.24;61.57;98093.36;109883;1249;71553;-62
2022/02/26 11:20:01;;;;;;;7.10;5.60;;;;;;;6.37;61.48;98092.42;109870;1250;68607;-64
2022/02/26 11:22:31;;;;;;;7.60;5.60;;;;;;;6.47;61.32;98091.13;109901;1249;69174;-63
2022/02/26 11:25:01;;;;;;;7.40;5.60;;;;;;;6.52;60.68;98093.98;109672;1250;59768;-64
2022/02/26 11:27:30;;;;;;;10.00;7.50;;;;;;;6.61;60.76;98088.54;109730;1250;59672;-63
2022/02/26 11:30:03;;;;;;;8.60;6.30;;;;;;;6.92;60.60;98089.38;109903;1250;70859;-63
2022/02/26 11:32:39;;;;;;;7.80;5.90;;;;;;;7.23;59.06;98092.60;109594;1253;68627;-63
2022/02/26 11:35:22;;;;;;;7.50;5.80;;;;;;;7.46;58.94;98089.71;109772;1250;68933;-63